createdAt,value
2022-11-03T00:01:51.324Z,96.95
2022-11-03T00:06:58.147Z,96.99
2022-11-03T00:12:04.239Z,96.91
2022-11-03T00:17:10.295Z,97.09
2022-11-03T00:22:16.159Z,97.08
2022-11-03T00:27:22.200Z,97.33
2022-11-03T00:32:28.006Z,97.60
2022-11-03T00:37:33.961Z,97.71
2022-11-03T00:42:40.061Z,97.75
2022-11-03T00:48:04.903Z,97.96
2022-11-03T00:53:10.750Z,98.12
2022-11-03T00:58:16.520Z,98.20
2022-11-03T01:03:22.833Z,98.30
2022-11-03T01:08:33.970Z,98.32
2022-11-03T01:13:39.820Z,98.19
2022-11-03T01:18:45.749Z,98.11
2022-11-03T01:23:51.882Z,98.02
2022-11-03T01:28:58.882Z,98.18
2022-11-03T01:34:04.951Z,98.06
2022-11-03T01:39:13.184Z,98.14
2022-11-03T01:44:35.055Z,98.15
2022-11-03T01:49:46.025Z,98.24
2022-11-03T01:59:24.836Z,98.12
2022-11-03T02:04:33.326Z,98.18
2022-11-03T02:09:39.214Z,98.33
2022-11-03T02:14:50.008Z,98.22
2022-11-03T02:20:00.405Z,98.14
2022-11-03T02:25:17.380Z,98.15
2022-11-03T02:30:23.451Z,98.25
2022-11-03T02:35:37.655Z,98.17
2022-11-03T02:40:48.457Z,98.31
2022-11-03T02:45:55.556Z,98.31
2022-11-03T02:51:03.109Z,98.31
2022-11-03T02:56:15.423Z,98.29
2022-11-03T03:01:28.760Z,98.48
2022-11-03T03:06:39.384Z,98.44
2022-11-03T03:11:47.862Z,98.29
2022-11-03T03:17:00.569Z,98.18
2022-11-03T03:22:15.356Z,98.33
2022-11-03T03:27:25.356Z,98.51
2022-11-03T03:32:36.753Z,98.57
2022-11-03T03:37:43.516Z,98.65
2022-11-03T03:42:51.869Z,98.78
2022-11-03T03:47:58.029Z,99.08
2022-11-03T03:53:06.074Z,99.45
2022-11-03T03:58:14.420Z,99.60
2022-11-03T04:03:22.286Z,99.36
2022-11-03T04:08:28.072Z,99.63
2022-11-03T04:13:53.232Z,99.90
2022-11-03T04:19:17.890Z,100.00
2022-11-03T04:24:23.867Z,100.00
2022-11-03T04:29:31.448Z,100.00
2022-11-03T04:34:37.342Z,100.00
2022-11-03T04:44:55.246Z,100.00
2022-11-03T04:50:01.098Z,100.00
2022-11-03T04:55:13.336Z,100.00
2022-11-03T05:00:21.084Z,100.00
2022-11-03T05:05:27.987Z,100.00
2022-11-03T05:10:33.924Z,100.00
2022-11-03T05:15:45.752Z,100.00
2022-11-03T05:20:56.507Z,100.00
2022-11-03T05:26:02.974Z,100.00
2022-11-03T05:31:20.933Z,100.00
2022-11-03T05:36:29.156Z,100.00
2022-11-03T05:41:36.622Z,100.00
2022-11-03T05:46:42.466Z,100.00
2022-11-03T05:51:48.844Z,100.00
2022-11-03T05:56:56.131Z,100.00
2022-11-03T06:02:04.667Z,100.00
2022-11-03T06:07:20.544Z,100.00
2022-11-03T06:12:30.533Z,100.00
2022-11-03T06:17:38.032Z,99.84
2022-11-03T06:22:45.755Z,99.29
2022-11-03T06:27:53.351Z,97.96
2022-11-03T06:33:02.051Z,94.56
2022-11-03T06:38:19.448Z,90.75
2022-11-03T06:43:28.970Z,88.28
2022-11-03T06:48:36.247Z,87.66
2022-11-03T06:53:43.031Z,87.26
2022-11-03T06:58:50.231Z,87.13
2022-11-03T07:04:01.500Z,87.60
2022-11-03T07:09:17.098Z,88.30
2022-11-03T07:14:25.276Z,89.14
2022-11-03T07:19:36.803Z,89.99
2022-11-03T07:24:44.999Z,90.13
2022-11-03T07:29:54.402Z,90.22
2022-11-03T07:35:11.592Z,89.85
2022-11-03T07:40:22.119Z,85.34
2022-11-03T07:45:40.122Z,78.12
2022-11-03T07:50:46.370Z,70.95
2022-11-03T07:55:56.597Z,65.96
2022-11-03T08:01:09.199Z,62.48
2022-11-03T08:06:18.865Z,61.88
2022-11-03T08:11:29.271Z,63.65
2022-11-03T08:16:36.364Z,65.35
2022-11-03T08:21:42.167Z,66.47
2022-11-03T08:26:48.248Z,68.53
2022-11-03T08:31:55.308Z,69.34
2022-11-03T08:37:01.650Z,69.76
2022-11-03T08:42:07.530Z,70.77
2022-11-03T08:47:13.411Z,72.23
2022-11-03T08:52:19.857Z,73.44
2022-11-03T08:57:25.889Z,73.99
2022-11-03T09:02:32.077Z,70.78
2022-11-03T09:13:04.449Z,63.59
2022-11-03T09:18:10.878Z,59.87
2022-11-03T09:23:17.608Z,52.57
2022-11-03T09:30:12.132Z,49.02
2022-11-03T09:35:20.551Z,46.46
2022-11-03T09:40:27.149Z,45.63
2022-11-03T09:45:33.716Z,45.19
2022-11-03T09:50:40.146Z,44.29
2022-11-03T09:55:46.285Z,43.99
2022-11-03T10:00:52.612Z,44.26
2022-11-03T10:05:58.779Z,44.49
2022-11-03T10:11:07.184Z,44.19
2022-11-03T10:16:18.726Z,44.20
2022-11-03T10:21:29.872Z,44.07
2022-11-03T10:26:45.583Z,44.33
2022-11-03T10:31:53.532Z,44.71
2022-11-03T10:37:21.918Z,45.34
2022-11-03T10:42:35.656Z,46.16
2022-11-03T10:47:42.236Z,46.26
2022-11-03T10:52:48.803Z,46.78
2022-11-03T10:57:56.133Z,47.36
2022-11-03T11:03:02.669Z,47.95
2022-11-03T11:08:11.707Z,48.62
2022-11-03T11:13:28.665Z,49.49
2022-11-03T11:19:01.443Z,50.16
2022-11-03T11:24:11.328Z,49.81
2022-11-03T11:29:37.112Z,50.13
2022-11-03T11:34:43.384Z,50.26
2022-11-03T11:39:49.457Z,49.88
2022-11-03T11:45:03.576Z,49.99
2022-11-03T11:50:23.829Z,50.21
2022-11-03T11:55:35.794Z,50.04
2022-11-03T12:00:54.128Z,50.52
2022-11-03T12:06:00.546Z,50.03
2022-11-03T12:11:09.447Z,50.98
2022-11-03T12:16:33.793Z,50.77
2022-11-03T12:21:50.517Z,51.25
2022-11-03T12:26:57.228Z,52.03
2022-11-03T12:32:03.465Z,52.23
2022-11-03T12:37:10.073Z,52.82
2022-11-03T12:42:16.341Z,52.83
2022-11-03T12:47:22.547Z,53.37
2022-11-03T12:52:28.582Z,53.61
2022-11-03T12:57:34.735Z,54.39
2022-11-03T13:02:41.031Z,54.10
2022-11-03T13:07:47.324Z,54.32
2022-11-03T13:12:53.305Z,54.26
2022-11-03T13:18:13.018Z,53.89
2022-11-03T13:23:22.972Z,54.31
2022-11-03T13:28:29.462Z,54.33
2022-11-03T13:33:35.788Z,53.84
2022-11-03T13:38:41.988Z,53.86
2022-11-03T13:43:48.063Z,53.74
2022-11-03T13:49:51.072Z,53.74
2022-11-03T13:59:47.207Z,53.29
2022-11-03T14:04:53.477Z,53.15
2022-11-03T14:10:02.592Z,53.89
2022-11-03T14:15:11.924Z,54.06
2022-11-03T14:20:18.120Z,55.10
2022-11-03T14:25:24.775Z,56.61
2022-11-03T14:30:30.732Z,57.49
2022-11-03T14:35:36.773Z,58.34
2022-11-03T14:41:01.518Z,59.41
2022-11-03T14:46:07.981Z,60.20
2022-11-03T14:51:14.115Z,60.57
2022-11-03T14:56:20.741Z,61.11
2022-11-03T15:01:27.167Z,61.37
2022-11-03T15:06:33.592Z,62.45
2022-11-03T15:11:39.665Z,63.65
2022-11-03T15:16:46.310Z,64.86
2022-11-03T15:21:52.233Z,66.07
2022-11-03T15:26:58.467Z,67.26
2022-11-03T15:32:04.824Z,68.27
2022-11-03T15:37:11.381Z,68.97
2022-11-03T15:42:18.044Z,69.56
2022-11-03T15:47:24.579Z,70.08
2022-11-03T15:52:31.633Z,70.83
2022-11-03T15:57:38.179Z,71.52
2022-11-03T16:02:45.218Z,71.78
2022-11-03T16:07:51.287Z,72.21
2022-11-03T16:12:57.251Z,72.81
2022-11-03T16:18:06.023Z,73.36
2022-11-03T16:23:12.397Z,73.59
2022-11-03T16:28:18.550Z,74.00
2022-11-03T16:33:25.347Z,74.35
2022-11-03T16:38:32.213Z,75.08
2022-11-03T16:43:38.864Z,75.52
2022-11-03T16:48:45.626Z,75.93
2022-11-03T16:53:54.655Z,76.33
2022-11-03T16:59:00.797Z,76.70
2022-11-03T17:04:07.022Z,77.24
2022-11-03T17:09:13.201Z,77.73
2022-11-03T17:14:18.987Z,78.89
2022-11-03T17:19:24.965Z,79.77
2022-11-03T17:24:30.857Z,79.62
2022-11-03T17:29:40.129Z,80.65
2022-11-03T17:34:47.425Z,81.14
2022-11-03T17:39:54.268Z,81.15
2022-11-03T17:45:01.302Z,81.45
2022-11-03T17:50:10.327Z,81.74
2022-11-03T17:55:27.480Z,81.40
2022-11-03T18:00:34.077Z,80.49
2022-11-03T18:05:40.753Z,80.36
2022-11-03T18:10:48.938Z,80.51
2022-11-03T18:16:00.333Z,80.61
2022-11-03T18:21:07.718Z,80.72
2022-11-03T18:26:19.138Z,81.08
2022-11-03T18:31:33.678Z,81.38
2022-11-03T18:36:40.421Z,82.01
2022-11-03T18:41:46.854Z,82.24
2022-11-03T18:46:54.621Z,82.66
2022-11-03T18:52:04.499Z,82.90
2022-11-03T18:57:13.384Z,83.72
2022-11-03T19:02:21.698Z,83.83
2022-11-03T19:07:34.330Z,84.08
2022-11-03T19:12:43.810Z,84.36
2022-11-03T19:17:52.487Z,85.00
2022-11-03T19:22:58.762Z,85.17
2022-11-03T19:28:05.830Z,85.54
2022-11-03T19:33:19.914Z,85.80
2022-11-03T19:38:26.900Z,86.61
2022-11-03T19:43:34.907Z,88.85
2022-11-03T19:48:42.717Z,90.85
2022-11-03T19:53:49.555Z,91.43
2022-11-03T19:58:55.814Z,92.18
2022-11-03T20:04:01.930Z,91.78
2022-11-03T20:09:11.424Z,92.54
2022-11-03T20:14:26.766Z,91.72
2022-11-03T20:19:33.032Z,91.67
2022-11-03T20:24:39.320Z,92.47
2022-11-03T20:29:45.537Z,93.02
2022-11-03T20:34:51.498Z,93.00
2022-11-03T20:39:58.256Z,93.18
2022-11-03T20:45:10.220Z,93.23
2022-11-03T20:50:18.250Z,93.15
2022-11-03T20:55:25.532Z,92.93
2022-11-03T21:00:32.211Z,92.70
2022-11-03T21:05:38.107Z,92.58
2022-11-03T21:10:45.173Z,92.67
2022-11-03T21:16:26.894Z,92.73
2022-11-03T21:21:33.241Z,92.72
2022-11-03T21:26:41.381Z,92.42
2022-11-03T21:31:47.850Z,91.98
2022-11-03T21:36:53.714Z,91.84
2022-11-03T21:42:19.026Z,92.18
2022-11-03T21:47:25.142Z,91.92
2022-11-03T21:52:34.674Z,91.80
2022-11-03T21:57:40.672Z,92.65
2022-11-03T22:02:46.592Z,94.00
2022-11-03T22:07:52.413Z,95.08
2022-11-03T22:12:59.094Z,95.75
2022-11-03T22:18:06.606Z,95.96
2022-11-03T22:23:34.127Z,95.76
2022-11-03T22:28:40.914Z,95.86
2022-11-03T22:34:25.352Z,95.60
2022-11-03T22:39:50.358Z,95.52
2022-11-03T22:45:15.252Z,95.32
2022-11-03T22:50:21.133Z,95.10
2022-11-03T22:55:27.136Z,95.14
2022-11-03T23:00:33.251Z,94.96
2022-11-03T23:05:39.177Z,95.08
2022-11-03T23:10:45.569Z,95.15
2022-11-03T23:15:51.623Z,95.21
2022-11-03T23:21:08.258Z,95.32
2022-11-03T23:26:14.600Z,95.38
2022-11-03T23:31:20.563Z,95.34
2022-11-03T23:36:27.333Z,95.22
2022-11-03T23:41:33.708Z,95.41
2022-11-03T23:46:58.324Z,95.71
2022-11-03T23:52:04.246Z,95.60
2022-11-03T23:57:30.376Z,95.68
